Latest Coastal Weather Observations for Lady Elliot Island

IDQ60701

Issued at 12:42 am EST Friday 3 February 2023 (issued every 10 minutes, with the page automatically refreshed every 10 minutes)

About coastal observations | Map of coastal stations | Coastal observations for QLD | Marine services | Other Formats
Station Details ID: 039059 Name: LADY ELLIOT ISLAND Lat: -24.11 Lon: 152.72 Height: 3.6 m
Data from the previous 72 hours. | See also: Recent months at Lady Elliot Island
Date/Time
EST
Wind Sea
Height
m
Swell Vis
km
Cloud Weather Temp
°C
Press
MSL
hPa
Rain since
9am
mm
Dir  Spd
kts
Gust
kts
Height
m
Period
s
Dir
03/12:30am WNW 11 15 - - - - - - - 26.7 998.9 0.6
03/12:00am NW 8 11 - - - - - - - 26.8 999.1 0.6
 
Date/Time
EST
Wind Sea
Height
m
Swell Vis
km
Cloud Weather Temp
°C
Press
MSL
hPa
Rain since
9am
mm
Dir  Spd
kts
Gust
kts
Height
m
Period
s
Dir
02/11:30pm NW 6 8 - - - - - - - 26.6 999.3 0.6
02/11:00pm SW 2 4 - - - - - - - 25.6 999.7 0.6
02/10:30pm CALM 0 0 - - - - - - - 25.4 999.6 0.4
02/10:00pm CALM 0 0 - - - - - - - 25.5 999.7 0.4
02/09:30pm SW 1 3 - - - - - - - 26.0 999.5 0.4
02/09:00pm SSW 4 5 - - - - - - Recent precip. 26.6 999.4 0.4
02/08:30pm SW 4 6 - - - - - - - 27.0 999.7 0.4
02/08:00pm WSW 4 6 - - - - - - - 27.2 999.7 0.0
02/07:30pm WNW 3 4 - - - - - - - 27.3 999.3 0.0
02/07:00pm E 2 4 - - - - - - - 27.2 998.9 0.0
02/06:30pm E 3 4 - - - - - - - 27.5 998.4 0.0
02/06:00pm E 4 5 - - - - - - - 27.7 998.2 0.0
02/05:30pm ESE 4 5 - - - - - - - 27.9 997.4 0.0
02/05:00pm E 5 6 - - - - - - - 28.4 997.1 0.0
02/04:30pm E 5 7 - - - - - - - 29.8 996.8 0.0
02/04:00pm ENE 5 7 - - - - - - - 28.6 996.6 0.0
02/03:30pm E 7 8 - - - - - - - 29.9 996.6 0.0
02/03:00pm E 7 9 - - - - - - - 29.6 997.1 0.0
02/02:30pm E 8 9 - - - - - - - 30.4 997.3 0.0
02/02:00pm E 7 8 - - - - - - - 30.3 997.7 0.0
02/01:30pm ESE 9 11 - - - - - - - 30.4 998.2 0.0
02/01:00pm SE 7 9 - - - - - - - 30.7 998.6 0.0
02/12:30pm ESE 8 10 - - - - - - - 30.4 999.0 0.0
02/12:00pm ESE 9 11 - - - - - - - 30.5 999.2 0.0
02/11:30am ESE 9 10 - - - - - - - 30.7 999.5 0.0
02/11:00am SE 7 8 - - - - - - - 29.7 999.8 0.0
02/10:30am SSE 6 7 - - - - - - - 30.1 1000.2 0.0
02/10:00am SSE 6 9 - - - - - - - 29.5 1000.5 0.0
02/09:30am S 9 13 - - - - - - - 28.7 1000.2 0.0
02/09:00am SSW 9 13 - - - - - - - 28.5 1000.0 2.8
02/08:30am W 7 11 - - - - - - - 28.3 1000.2 2.8
02/08:00am WNW 9 12 - - - - - - - 28.0 1000.3 2.8
02/07:30am WNW 9 12 - - - - - - - 27.1 1000.4 2.8
02/07:00am W 7 11 - - - - - - - 27.0 1000.4 2.8
02/06:30am W 7 11 - - - - - - - 26.6 1000.3 2.8
02/06:00am WNW 11 13 - - - - - - - 26.7 999.9 2.8
02/05:30am NW 10 13 - - - - - - - 26.5 999.3 2.8
02/05:00am WNW 10 13 - - - - - - - 26.3 999.1 2.8
02/04:30am WNW 11 15 - - - - - - - 26.2 999.1 2.8
02/04:00am NW 9 15 - - - - - - - 27.0 998.9 2.6
02/03:30am NW 8 12 - - - - - - - 26.9 998.8 2.4
02/03:00am NW 9 15 - - - - - - Rain 26.7 998.9 2.4
02/02:30am NNW 13 18 - - - - - - - 27.4 999.1 1.6
02/02:00am NNW 11 15 - - - - - - - 27.6 999.4 1.6
02/01:30am NNW 13 18 - - - - - - - 27.3 999.6 1.6
02/01:00am NNW 15 20 - - - - - - - 27.2 1000.0 1.6
02/12:30am NNW 15 20 - - - - - - - 27.6 1000.5 1.6
02/12:00am N 15 18 - - - - - - - 27.5 1000.5 1.6
 
Date/Time
EST
Wind Sea
Height
m
Swell Vis
km
Cloud Weather Temp
°C
Press
MSL
hPa
Rain since
9am
mm
Dir  Spd
kts
Gust
kts
Height
m
Period
s
Dir
01/11:30pm NNW 15 19 - - - - - - - 27.5 1001.0 1.6
01/11:00pm NNW 14 18 - - - - - - - 27.5 1001.8 1.6
01/10:30pm NNW 15 18 - - - - - - - 27.5 1002.0 1.6
01/10:00pm NNW 12 15 - - - - - - - 27.4 1002.1 1.6
01/09:30pm NNW 10 15 - - - - - - - 27.4 1001.7 1.6
01/09:00pm NNW 9 13 - - - - - - - 27.5 1001.8 1.6
01/08:30pm NNW 10 15 - - - - - - - 27.6 1001.8 1.6
01/08:00pm NNW 12 15 - - - - - - - 27.5 1001.6 1.6
01/07:30pm NNW 11 16 - - - - - - - 27.4 1001.6 1.6
01/07:00pm NNW 11 16 - - - - - - - 27.4 1001.2 1.4
01/06:30pm NNW 11 15 - - - - - - - 27.4 1001.2 1.2
01/06:00pm NNW 14 18 - - - - - - - 27.5 1001.0 0.8
01/05:30pm NNW 16 19 - - - - - - - 28.0 1000.7 0.8
01/05:00pm NNW 16 20 - - - - - - - 28.0 1000.7 0.8
01/04:30pm NNW 15 21 - - - - - - - 27.9 1000.5 0.8
01/04:00pm NNW 17 23 - - - - - - - 28.3 1000.5 0.8
01/03:30pm NNW 17 22 - - - - - - - 29.3 1000.4 0.8
01/03:00pm NNW 16 22 - - - - - - - 29.8 1000.5 0.8
01/02:30pm NNW 17 23 - - - - - - - 30.0 1000.7 0.8
01/02:00pm NNW 15 23 - - - - - - - 29.8 1001.4 0.8
01/01:30pm NNW 16 24 - - - - - - - 29.9 1001.4 0.8
01/01:00pm NNW 14 19 - - - - - - - 28.9 1001.8 0.8
01/12:30pm NNW 13 22 - - - - - - - 27.9 1002.4 0.8
01/12:00pm NNW 14 20 - - - - - - Recent precip. 26.7 1002.6 0.8
01/11:45am NW 15 25 - - - - - - - 26.4 1002.9 0.4
01/11:30am NNW 21 25 - - - - - - - 29.2 1002.7 0.0
01/11:00am NNW 21 26 - - - - - - - 29.5 1003.1 0.0
01/10:30am NNW 22 26 - - - - - - - 29.0 1003.3 0.0
01/10:00am N 22 26 - - - - - - - 29.2 1003.4 0.0
01/09:30am NNW 21 26 - - - - - - - 29.7 1003.6 0.0
01/09:00am NNW 22 26 - - - - - - - 29.1 1003.6 0.0
01/08:30am NNW 20 24 - - - - - - - 28.9 1003.7 0.0
01/08:00am NNW 19 23 - - - - - - - 28.7 1003.9 0.0
01/07:30am NNW 19 23 - - - - - - - 28.0 1003.9 0.0
01/07:00am NNW 19 25 - - - - - - - 27.8 1003.8 0.0
01/06:30am NNW 19 24 - - - - - - - 27.7 1003.7 0.0
01/06:00am NNW 19 24 - - - - - - - 27.6 1003.6 0.0
01/05:30am NNW 19 26 - - - - - - - 27.5 1003.3 0.0
01/05:00am NNW 18 25 - - - - - - - 27.4 1003.2 0.0
01/04:30am NNW 15 22 - - - - - - - 27.4 1003.1 0.0
01/04:00am NNW 18 23 - - - - - - - 27.4 1002.8 0.0
01/03:30am NNW 17 25 - - - - - - - 27.4 1002.8 0.0
01/03:02am NNW 15 25 - - - - - - - 27.4 1002.9 0.0
01/03:00am NNW 15 23 - - - - - - - 27.4 1002.9 0.0
01/02:36am NNW 17 27 - - - - - - - 27.6 1003.0 0.0
01/02:30am NNW 19 27 - - - - - - - 27.6 1003.0 0.0
01/02:00am NNW 17 27 - - - - - - - 27.5 1003.1 0.0
01/01:30am NNW 21 26 - - - - - - - 27.5 1003.0 0.0
01/01:00am NNW 18 24 - - - - - - - 27.5 1003.3 0.0
01/12:30am NNW 16 21 - - - - - - - 27.5 1004.0 0.0
01/12:00am NNW 17 22 - - - - - - - 27.6 1004.6 0.0
 
Date/Time
EST
Wind Sea
Height
m
Swell Vis
km
Cloud Weather Temp
°C
Press
MSL
hPa
Rain since
9am
mm
Dir  Spd
kts
Gust
kts
Height
m
Period
s
Dir
31/11:30pm NNW 18 23 - - - - - - - 27.6 1004.9 0.0
31/11:00pm NNW 20 24 - - - - - - - 27.6 1005.0 0.0
31/10:30pm NNW 19 23 - - - - - - - 27.7 1005.2 0.0
31/10:00pm NNW 20 24 - - - - - - - 27.5 1005.3 0.0
31/09:30pm N 19 22 - - - - - - - 27.5 1005.3 0.0
31/09:00pm N 20 24 - - - - - - - 27.6 1005.3 0.0
31/08:30pm N 19 23 - - - - - - - 27.6 1005.1 0.0
31/08:00pm N 18 22 - - - - - - - 27.8 1005.0 0.0
31/07:30pm N 17 22 - - - - - - - 27.5 1004.8 0.0
31/07:00pm N 19 21 - - - - - - - 27.5 1004.8 0.0
31/06:30pm N 19 22 - - - - - - - 27.5 1004.5 0.0
31/06:00pm N 19 21 - - - - - - - 27.9 1004.2 0.0
31/05:30pm N 17 21 - - - - - - - 28.0 1003.9 0.0
31/05:00pm N 16 19 - - - - - - - 28.3 1004.0 0.0
31/04:30pm NNW 13 17 - - - - - - - 28.4 1004.0 0.0
31/04:00pm NNW 10 14 - - - - - - - 28.4 1004.1 0.0
31/03:30pm NNW 10 14 - - - - - - - 28.9 1004.1 0.0
31/03:00pm NNW 11 15 - - - - - - - 29.3 1004.2 0.0
31/02:30pm NNW 10 14 - - - - - - - 29.4 1004.6 0.0
31/02:00pm NNW 10 14 - - - - - - - 28.8 1004.7 0.0
31/01:30pm NW 10 15 - - - - - - - 29.1 1005.0 0.0
31/01:00pm NW 9 14 - - - - - - - 28.5 1005.5 0.0
31/12:30pm NW 9 14 - - - - - - - 28.5 1005.9 0.0
31/12:00pm NW 10 14 - - - - - - - 30.0 1006.4 0.0
31/11:30am NW 11 16 - - - - - - - 28.8 1006.9 0.0
31/11:00am NW 10 14 - - - - - - - 30.4 1007.2 0.0
31/10:30am NW 10 15 - - - - - - - 28.9 1007.5 0.0
31/10:00am NW 10 16 - - - - - - - 29.6 1007.7 0.0
31/09:30am NNW 13 17 - - - - - - - 29.0 1007.8 0.0
31/09:00am NNW 13 18 - - - - - - - 28.3 1008.0 0.0
31/08:30am NNW 12 17 - - - - - - - 28.6 1008.1 0.0
31/08:00am NNW 12 18 - - - - - - - 27.9 1008.2 0.0
31/07:30am NNW 14 18 - - - - - - - 27.3 1008.1 0.0
31/07:00am NNW 12 16 - - - - - - - 26.8 1008.1 0.0
31/06:30am NNW 14 17 - - - - - - - 26.8 1007.8 0.0
31/06:00am NNW 14 19 - - - - - - - 26.7 1007.4 0.0
31/05:30am N 14 18 - - - - - - - 26.5 1007.2 0.0
31/05:00am N 14 17 - - - - - - - 26.2 1007.0 0.0
31/04:30am N 14 17 - - - - - - - 26.2 1006.9 0.0
31/04:00am NNW 13 16 - - - - - - - 26.3 1007.0 0.0
31/03:30am N 13 16 - - - - - - - 26.3 1007.1 0.0
31/03:00am N 14 16 - - - - - - - 26.3 1007.3 0.0
31/02:30am N 13 18 - - - - - - - 26.3 1007.6 0.0
31/02:00am N 12 16 - - - - - - - 26.1 1007.9 0.0
31/01:30am N 10 15 - - - - - - - 26.2 1008.2 0.0
31/01:00am N 11 14 - - - - - - - 26.1 1008.7 0.0

Other formats

Comma delimited format used in spreadsheet applications
http://www.bom.gov.au/fwo/IDQ60701/IDQ60701.94388.axf

JavaScript Object Notation format (JSON) in row-major order
http://www.bom.gov.au/fwo/IDQ60701/IDQ60701.94388.json

Data quality

Most of these data are generated automatically and are frequently updated. Quality checks on data are not normally performed. It is possible for incorrect values to appear. Refer to information at About Latest Weather Observations and please check the disclaimer before using these data.